sensor_id;sensor_type;location;lat;lon;timestamp;temperature;humidity
56308;DHT22;42217;50.422;7.210;2023-07-22T00:01:04;11.30;99.90
56308;DHT22;42217;50.422;7.210;2023-07-22T00:03:30;11.20;99.90
56308;DHT22;42217;50.422;7.210;2023-07-22T00:06:09;11.20;99.90
56308;DHT22;42217;50.422;7.210;2023-07-22T00:08:37;11.20;99.90
56308;DHT22;42217;50.422;7.210;2023-07-22T00:11:04;11.20;99.90
56308;DHT22;42217;50.422;7.210;2023-07-22T00:13:31;11.10;99.90
56308;DHT22;42217;50.422;7.210;2023-07-22T00:15:57;11.10;99.90
56308;DHT22;42217;50.422;7.210;2023-07-22T00:18:25;11.00;99.90
56308;DHT22;42217;50.422;7.210;2023-07-22T00:20:52;11.00;99.90
56308;DHT22;42217;50.422;7.210;2023-07-22T00:23:19;11.00;99.90
56308;DHT22;42217;50.422;7.210;2023-07-22T00:25:46;11.00;99.90
56308;DHT22;42217;50.422;7.210;2023-07-22T00:28:12;11.00;99.90
56308;DHT22;42217;50.422;7.210;2023-07-22T00:30:38;11.00;99.90
56308;DHT22;42217;50.422;7.210;2023-07-22T00:33:04;11.00;99.90
56308;DHT22;42217;50.422;7.210;2023-07-22T00:35:31;10.90;99.90
56308;DHT22;42217;50.422;7.210;2023-07-22T00:37:58;10.90;99.90
56308;DHT22;42217;50.422;7.210;2023-07-22T00:40:25;10.90;99.90
56308;DHT22;42217;50.422;7.210;2023-07-22T00:42:50;10.90;99.90
56308;DHT22;42217;50.422;7.210;2023-07-22T00:45:16;10.90;99.90
56308;DHT22;42217;50.422;7.210;2023-07-22T00:47:43;10.80;99.90
56308;DHT22;42217;50.422;7.210;2023-07-22T00:50:10;10.80;99.90
56308;DHT22;42217;50.422;7.210;2023-07-22T00:52:37;10.90;99.90
56308;DHT22;42217;50.422;7.210;2023-07-22T00:55:04;10.90;99.90
56308;DHT22;42217;50.422;7.210;2023-07-22T00:57:30;10.80;99.90
56308;DHT22;42217;50.422;7.210;2023-07-22T00:59:57;10.80;99.90
56308;DHT22;42217;50.422;7.210;2023-07-22T01:02:23;10.70;99.90
56308;DHT22;42217;50.422;7.210;2023-07-22T01:04:50;10.70;99.90
56308;DHT22;42217;50.422;7.210;2023-07-22T01:07:18;10.70;99.90
56308;DHT22;42217;50.422;7.210;2023-07-22T01:09:44;10.70;99.90
56308;DHT22;42217;50.422;7.210;2023-07-22T01:12:11;10.70;99.90
56308;DHT22;42217;50.422;7.210;2023-07-22T01:14:38;10.70;99.90
56308;DHT22;42217;50.422;7.210;2023-07-22T01:17:06;10.70;99.90
56308;DHT22;42217;50.422;7.210;2023-07-22T01:19:33;10.60;99.90
56308;DHT22;42217;50.422;7.210;2023-07-22T01:22:01;10.60;99.90
56308;DHT22;42217;50.422;7.210;2023-07-22T01:24:28;10.50;99.90
56308;DHT22;42217;50.422;7.210;2023-07-22T01:26:55;10.40;99.90
56308;DHT22;42217;50.422;7.210;2023-07-22T01:29:22;10.40;99.90
56308;DHT22;42217;50.422;7.210;2023-07-22T01:31:51;10.40;99.90
56308;DHT22;42217;50.422;7.210;2023-07-22T01:34:17;10.30;99.90
56308;DHT22;42217;50.422;7.210;2023-07-22T01:36:44;10.20;99.90
56308;DHT22;42217;50.422;7.210;2023-07-22T01:39:10;10.20;99.90
56308;DHT22;42217;50.422;7.210;2023-07-22T01:41:37;10.20;99.90
56308;DHT22;42217;50.422;7.210;2023-07-22T01:44:03;10.20;99.90
56308;DHT22;42217;50.422;7.210;2023-07-22T01:46:29;10.20;99.90
56308;DHT22;42217;50.422;7.210;2023-07-22T01:48:58;10.20;99.90
56308;DHT22;42217;50.422;7.210;2023-07-22T01:51:24;10.10;99.90
56308;DHT22;42217;50.422;7.210;2023-07-22T01:53:51;10.10;99.90
56308;DHT22;42217;50.422;7.210;2023-07-22T01:56:17;10.10;99.90
56308;DHT22;42217;50.422;7.210;2023-07-22T01:58:42;10.10;99.90
56308;DHT22;42217;50.422;7.210;2023-07-22T02:01:08;10.20;99.90
56308;DHT22;42217;50.422;7.210;2023-07-22T02:03:34;10.20;99.90
56308;DHT22;42217;50.422;7.210;2023-07-22T02:06:06;10.30;99.90
56308;DHT22;42217;50.422;7.210;2023-07-22T02:08:32;10.30;99.90
56308;DHT22;42217;50.422;7.210;2023-07-22T02:11:06;10.30;99.90
56308;DHT22;42217;50.422;7.210;2023-07-22T02:13:35;10.30;99.90
56308;DHT22;42217;50.422;7.210;2023-07-22T02:16:01;10.40;99.90
56308;DHT22;42217;50.422;7.210;2023-07-22T02:18:27;10.50;99.90
56308;DHT22;42217;50.422;7.210;2023-07-22T02:20:54;10.60;99.90
56308;DHT22;42217;50.422;7.210;2023-07-22T02:23:21;10.60;99.90
56308;DHT22;42217;50.422;7.210;2023-07-22T02:25:50;10.70;99.90
56308;DHT22;42217;50.422;7.210;2023-07-22T02:28:17;10.80;99.90
56308;DHT22;42217;50.422;7.210;2023-07-22T02:30:51;10.80;99.90
56308;DHT22;42217;50.422;7.210;2023-07-22T02:33:18;10.90;99.90
56308;DHT22;42217;50.422;7.210;2023-07-22T02:35:44;11.00;99.90
56308;DHT22;42217;50.422;7.210;2023-07-22T02:38:11;11.10;99.90
56308;DHT22;42217;50.422;7.210;2023-07-22T02:40:37;11.10;99.90
56308;DHT22;42217;50.422;7.210;2023-07-22T02:43:03;11.10;99.90
56308;DHT22;42217;50.422;7.210;2023-07-22T02:45:29;11.10;99.90
56308;DHT22;42217;50.422;7.210;2023-07-22T02:47:55;11.10;99.90
56308;DHT22;42217;50.422;7.210;2023-07-22T02:50:21;11.10;99.90
56308;DHT22;42217;50.422;7.210;2023-07-22T02:52:47;11.10;99.90
56308;DHT22;42217;50.422;7.210;2023-07-22T02:55:17;10.90;99.90
56308;DHT22;42217;50.422;7.210;2023-07-22T02:57:47;10.90;99.90
56308;DHT22;42217;50.422;7.210;2023-07-22T03:00:15;10.90;99.90
56308;DHT22;42217;50.422;7.210;2023-07-22T03:02:53;10.90;99.90
56308;DHT22;42217;50.422;7.210;2023-07-22T03:05:19;10.80;99.90
56308;DHT22;42217;50.422;7.210;2023-07-22T03:07:45;10.80;99.90
56308;DHT22;42217;50.422;7.210;2023-07-22T03:10:11;10.60;99.90
56308;DHT22;42217;50.422;7.210;2023-07-22T03:12:37;10.60;99.90
56308;DHT22;42217;50.422;7.210;2023-07-22T03:15:04;10.50;99.90
56308;DHT22;42217;50.422;7.210;2023-07-22T03:17:31;10.40;99.90
56308;DHT22;42217;50.422;7.210;2023-07-22T03:19:56;10.40;99.90
56308;DHT22;42217;50.422;7.210;2023-07-22T03:22:22;10.40;99.90
56308;DHT22;42217;50.422;7.210;2023-07-22T03:24:48;10.40;99.90
56308;DHT22;42217;50.422;7.210;2023-07-22T03:27:14;10.40;99.90
56308;DHT22;42217;50.422;7.210;2023-07-22T03:29:42;10.40;99.90
56308;DHT22;42217;50.422;7.210;2023-07-22T03:32:08;10.30;99.90
56308;DHT22;42217;50.422;7.210;2023-07-22T03:34:35;10.30;99.90
56308;DHT22;42217;50.422;7.210;2023-07-22T03:37:01;10.30;99.90
56308;DHT22;42217;50.422;7.210;2023-07-22T03:39:27;10.30;99.90
56308;DHT22;42217;50.422;7.210;2023-07-22T03:41:53;10.30;99.90
56308;DHT22;42217;50.422;7.210;2023-07-22T03:44:19;10.30;99.90
56308;DHT22;42217;50.422;7.210;2023-07-22T03:46:44;10.30;99.90
56308;DHT22;42217;50.422;7.210;2023-07-22T03:49:10;10.30;99.90
56308;DHT22;42217;50.422;7.210;2023-07-22T03:51:37;10.30;99.90
56308;DHT22;42217;50.422;7.210;2023-07-22T03:54:03;10.40;99.90
56308;DHT22;42217;50.422;7.210;2023-07-22T03:56:28;10.40;99.90
56308;DHT22;42217;50.422;7.210;2023-07-22T03:58:54;10.40;99.90
56308;DHT22;42217;50.422;7.210;2023-07-22T04:01:20;10.40;99.90
56308;DHT22;42217;50.422;7.210;2023-07-22T04:03:46;10.30;99.90
56308;DHT22;42217;50.422;7.210;2023-07-22T04:06:13;10.30;99.90
56308;DHT22;42217;50.422;7.210;2023-07-22T04:08:38;10.30;99.90
56308;DHT22;42217;50.422;7.210;2023-07-22T04:11:04;10.20;99.90
56308;DHT22;42217;50.422;7.210;2023-07-22T04:13:30;10.20;99.90
56308;DHT22;42217;50.422;7.210;2023-07-22T04:15:55;10.30;99.90
56308;DHT22;42217;50.422;7.210;2023-07-22T04:18:22;10.20;99.90
56308;DHT22;42217;50.422;7.210;2023-07-22T04:20:54;10.20;99.90
56308;DHT22;42217;50.422;7.210;2023-07-22T04:23:20;10.20;99.90
56308;DHT22;42217;50.422;7.210;2023-07-22T04:25:46;10.30;99.90
56308;DHT22;42217;50.422;7.210;2023-07-22T04:28:12;10.50;99.90
56308;DHT22;42217;50.422;7.210;2023-07-22T04:30:38;10.70;99.90
56308;DHT22;42217;50.422;7.210;2023-07-22T04:33:05;10.90;99.90
56308;DHT22;42217;50.422;7.210;2023-07-22T04:35:32;11.10;99.90
56308;DHT22;42217;50.422;7.210;2023-07-22T04:37:58;11.20;99.90
56308;DHT22;42217;50.422;7.210;2023-07-22T04:40:24;11.50;99.90
56308;DHT22;42217;50.422;7.210;2023-07-22T04:42:50;11.60;99.90
56308;DHT22;42217;50.422;7.210;2023-07-22T04:45:16;11.80;99.90
56308;DHT22;42217;50.422;7.210;2023-07-22T04:47:44;11.80;99.90
56308;DHT22;42217;50.422;7.210;2023-07-22T04:50:13;11.90;99.90
56308;DHT22;42217;50.422;7.210;2023-07-22T04:52:39;12.00;99.90
56308;DHT22;42217;50.422;7.210;2023-07-22T04:55:06;12.10;99.90
56308;DHT22;42217;50.422;7.210;2023-07-22T04:57:38;12.30;99.90
56308;DHT22;42217;50.422;7.210;2023-07-22T05:00:06;12.30;99.90
56308;DHT22;42217;50.422;7.210;2023-07-22T05:02:34;12.40;99.90
56308;DHT22;42217;50.422;7.210;2023-07-22T05:05:00;12.50;99.90
56308;DHT22;42217;50.422;7.210;2023-07-22T05:07:26;12.50;99.90
56308;DHT22;42217;50.422;7.210;2023-07-22T05:09:52;12.50;99.90
56308;DHT22;42217;50.422;7.210;2023-07-22T05:12:18;12.60;99.90
56308;DHT22;42217;50.422;7.210;2023-07-22T05:14:47;12.60;99.90
56308;DHT22;42217;50.422;7.210;2023-07-22T05:17:13;12.70;99.90
56308;DHT22;42217;50.422;7.210;2023-07-22T05:19:39;12.70;99.90
56308;DHT22;42217;50.422;7.210;2023-07-22T05:22:05;12.80;99.90
56308;DHT22;42217;50.422;7.210;2023-07-22T05:24:31;13.00;99.90
56308;DHT22;42217;50.422;7.210;2023-07-22T05:26:56;13.10;99.90
56308;DHT22;42217;50.422;7.210;2023-07-22T05:29:22;13.30;99.90
56308;DHT22;42217;50.422;7.210;2023-07-22T05:31:47;13.50;99.90
56308;DHT22;42217;50.422;7.210;2023-07-22T05:34:13;13.70;99.90
56308;DHT22;42217;50.422;7.210;2023-07-22T05:36:39;14.00;99.90
56308;DHT22;42217;50.422;7.210;2023-07-22T05:39:05;14.20;98.50
56308;DHT22;42217;50.422;7.210;2023-07-22T05:41:33;14.50;98.00
56308;DHT22;42217;50.422;7.210;2023-07-22T05:43:59;14.80;94.50
56308;DHT22;42217;50.422;7.210;2023-07-22T05:46:24;15.10;96.90
56308;DHT22;42217;50.422;7.210;2023-07-22T05:48:50;15.30;91.90
56308;DHT22;42217;50.422;7.210;2023-07-22T05:51:17;15.60;77.70
56308;DHT22;42217;50.422;7.210;2023-07-22T05:53:43;15.80;72.10
56308;DHT22;42217;50.422;7.210;2023-07-22T05:56:09;16.00;52.30
56308;DHT22;42217;50.422;7.210;2023-07-22T05:58:35;16.20;32.90
56308;DHT22;42217;50.422;7.210;2023-07-22T06:01:00;16.40;25.30
56308;DHT22;42217;50.422;7.210;2023-07-22T06:03:26;16.60;30.90
56308;DHT22;42217;50.422;7.210;2023-07-22T06:05:52;16.70;1.00
56308;DHT22;42217;50.422;7.210;2023-07-22T06:08:18;16.90;99.90
56308;DHT22;42217;50.422;7.210;2023-07-22T06:10:44;17.00;99.90
56308;DHT22;42217;50.422;7.210;2023-07-22T06:13:09;17.00;99.90
56308;DHT22;42217;50.422;7.210;2023-07-22T06:15:35;17.00;99.90
56308;DHT22;42217;50.422;7.210;2023-07-22T06:18:01;16.80;1.00
56308;DHT22;42217;50.422;7.210;2023-07-22T06:20:27;16.80;1.00
56308;DHT22;42217;50.422;7.210;2023-07-22T06:22:53;16.90;99.90
56308;DHT22;42217;50.422;7.210;2023-07-22T06:25:20;17.00;99.90
56308;DHT22;42217;50.422;7.210;2023-07-22T06:27:45;17.10;99.90
56308;DHT22;42217;50.422;7.210;2023-07-22T06:30:11;17.00;99.90
56308;DHT22;42217;50.422;7.210;2023-07-22T06:32:38;17.10;99.90
56308;DHT22;42217;50.422;7.210;2023-07-22T06:35:04;17.20;99.90
56308;DHT22;42217;50.422;7.210;2023-07-22T06:37:30;17.40;99.90
56308;DHT22;42217;50.422;7.210;2023-07-22T06:39:56;17.40;99.90
56308;DHT22;42217;50.422;7.210;2023-07-22T06:42:22;17.60;99.90
56308;DHT22;42217;50.422;7.210;2023-07-22T06:44:47;17.70;99.90
56308;DHT22;42217;50.422;7.210;2023-07-22T06:47:13;17.80;99.90
56308;DHT22;42217;50.422;7.210;2023-07-22T06:49:39;17.80;99.90
56308;DHT22;42217;50.422;7.210;2023-07-22T06:52:07;17.90;99.90
56308;DHT22;42217;50.422;7.210;2023-07-22T06:54:33;17.90;99.90
56308;DHT22;42217;50.422;7.210;2023-07-22T06:56:59;18.10;99.90
56308;DHT22;42217;50.422;7.210;2023-07-22T06:59:25;18.20;99.90
56308;DHT22;42217;50.422;7.210;2023-07-22T07:01:52;18.20;99.90
56308;DHT22;42217;50.422;7.210;2023-07-22T07:04:26;18.30;99.90
56308;DHT22;42217;50.422;7.210;2023-07-22T07:06:55;18.50;99.90
56308;DHT22;42217;50.422;7.210;2023-07-22T07:09:20;18.80;99.90
56308;DHT22;42217;50.422;7.210;2023-07-22T07:11:46;18.80;99.90
56308;DHT22;42217;50.422;7.210;2023-07-22T07:14:12;18.60;99.90
56308;DHT22;42217;50.422;7.210;2023-07-22T07:16:38;18.60;99.90
56308;DHT22;42217;50.422;7.210;2023-07-22T07:19:04;18.60;99.90
56308;DHT22;42217;50.422;7.210;2023-07-22T07:21:29;18.60;99.90
56308;DHT22;42217;50.422;7.210;2023-07-22T07:23:55;18.60;99.90
56308;DHT22;42217;50.422;7.210;2023-07-22T07:26:26;18.60;99.90
56308;DHT22;42217;50.422;7.210;2023-07-22T07:28:55;18.70;99.90
56308;DHT22;42217;50.422;7.210;2023-07-22T07:31:21;18.70;99.90
56308;DHT22;42217;50.422;7.210;2023-07-22T07:33:47;18.70;99.90
56308;DHT22;42217;50.422;7.210;2023-07-22T07:36:13;18.60;99.90
56308;DHT22;42217;50.422;7.210;2023-07-22T07:38:39;18.60;99.90
56308;DHT22;42217;50.422;7.210;2023-07-22T07:41:06;18.70;99.90
56308;DHT22;42217;50.422;7.210;2023-07-22T07:43:37;18.90;99.90
56308;DHT22;42217;50.422;7.210;2023-07-22T07:46:23;19.20;99.90
56308;DHT22;42217;50.422;7.210;2023-07-22T07:48:50;19.10;99.90
56308;DHT22;42217;50.422;7.210;2023-07-22T07:51:17;19.40;99.90
56308;DHT22;42217;50.422;7.210;2023-07-22T07:53:44;19.30;99.90
56308;DHT22;42217;50.422;7.210;2023-07-22T07:56:11;19.40;99.90
56308;DHT22;42217;50.422;7.210;2023-07-22T07:58:37;19.60;99.90
56308;DHT22;42217;50.422;7.210;2023-07-22T08:01:03;19.70;99.90
56308;DHT22;42217;50.422;7.210;2023-07-22T08:03:29;19.80;99.90
56308;DHT22;42217;50.422;7.210;2023-07-22T08:05:55;20.20;99.90
56308;DHT22;42217;50.422;7.210;2023-07-22T08:08:22;20.50;99.60
56308;DHT22;42217;50.422;7.210;2023-07-22T08:10:56;20.80;99.60
56308;DHT22;42217;50.422;7.210;2023-07-22T08:13:22;21.20;99.20
56308;DHT22;42217;50.422;7.210;2023-07-22T08:15:48;21.10;98.10
56308;DHT22;42217;50.422;7.210;2023-07-22T08:18:13;21.00;97.50
56308;DHT22;42217;50.422;7.210;2023-07-22T08:20:39;21.10;96.10
56308;DHT22;42217;50.422;7.210;2023-07-22T08:23:05;21.10;96.90
56308;DHT22;42217;50.422;7.210;2023-07-22T08:25:30;21.30;96.40
56308;DHT22;42217;50.422;7.210;2023-07-22T08:27:56;21.40;94.30
56308;DHT22;42217;50.422;7.210;2023-07-22T08:30:22;21.40;92.80
56308;DHT22;42217;50.422;7.210;2023-07-22T08:32:48;21.40;93.00
56308;DHT22;42217;50.422;7.210;2023-07-22T08:35:13;21.60;92.10
56308;DHT22;42217;50.422;7.210;2023-07-22T08:37:42;21.90;91.40
56308;DHT22;42217;50.422;7.210;2023-07-22T08:40:08;22.10;90.80
56308;DHT22;42217;50.422;7.210;2023-07-22T08:42:35;22.00;87.60
56308;DHT22;42217;50.422;7.210;2023-07-22T08:45:03;21.70;86.20
56308;DHT22;42217;50.422;7.210;2023-07-22T08:47:29;21.20;84.00
56308;DHT22;42217;50.422;7.210;2023-07-22T08:49:58;20.90;84.70
56308;DHT22;42217;50.422;7.210;2023-07-22T08:52:26;21.20;83.10
56308;DHT22;42217;50.422;7.210;2023-07-22T08:54:52;21.40;82.40
56308;DHT22;42217;50.422;7.210;2023-07-22T08:57:19;21.70;81.30
56308;DHT22;42217;50.422;7.210;2023-07-22T08:59:45;22.30;79.90
56308;DHT22;42217;50.422;7.210;2023-07-22T09:02:13;22.80;77.10
56308;DHT22;42217;50.422;7.210;2023-07-22T09:04:40;22.80;78.00
56308;DHT22;42217;50.422;7.210;2023-07-22T09:07:10;23.30;76.80
56308;DHT22;42217;50.422;7.210;2023-07-22T09:09:37;23.30;74.60
56308;DHT22;42217;50.422;7.210;2023-07-22T09:12:03;22.80;75.10
56308;DHT22;42217;50.422;7.210;2023-07-22T09:14:30;22.50;76.00
56308;DHT22;42217;50.422;7.210;2023-07-22T09:16:58;22.70;76.10
56308;DHT22;42217;50.422;7.210;2023-07-22T09:19:23;22.90;75.00
56308;DHT22;42217;50.422;7.210;2023-07-22T09:21:49;22.90;74.80
56308;DHT22;42217;50.422;7.210;2023-07-22T09:24:23;22.90;75.60
56308;DHT22;42217;50.422;7.210;2023-07-22T09:26:49;22.90;74.80
56308;DHT22;42217;50.422;7.210;2023-07-22T09:29:15;22.80;74.80
56308;DHT22;42217;50.422;7.210;2023-07-22T09:31:52;22.70;74.70
56308;DHT22;42217;50.422;7.210;2023-07-22T09:34:18;22.90;75.90
56308;DHT22;42217;50.422;7.210;2023-07-22T09:36:54;23.40;75.30
56308;DHT22;42217;50.422;7.210;2023-07-22T09:39:23;23.70;73.80
56308;DHT22;42217;50.422;7.210;2023-07-22T09:41:50;23.50;73.10
56308;DHT22;42217;50.422;7.210;2023-07-22T09:44:16;23.20;73.60
56308;DHT22;42217;50.422;7.210;2023-07-22T09:46:42;23.00;73.50
56308;DHT22;42217;50.422;7.210;2023-07-22T09:49:12;23.60;72.80
56308;DHT22;42217;50.422;7.210;2023-07-22T09:51:39;23.80;70.80
56308;DHT22;42217;50.422;7.210;2023-07-22T09:54:06;23.80;70.00
56308;DHT22;42217;50.422;7.210;2023-07-22T09:56:43;23.90;70.20
56308;DHT22;42217;50.422;7.210;2023-07-22T09:59:10;23.70;70.30
56308;DHT22;42217;50.422;7.210;2023-07-22T10:01:38;22.80;72.20
56308;DHT22;42217;50.422;7.210;2023-07-22T10:04:05;22.50;72.10
56308;DHT22;42217;50.422;7.210;2023-07-22T10:06:32;22.70;73.30
56308;DHT22;42217;50.422;7.210;2023-07-22T10:09:05;22.60;71.50
56308;DHT22;42217;50.422;7.210;2023-07-22T10:14:02;22.40;72.70
56308;DHT22;42217;50.422;7.210;2023-07-22T10:16:28;22.40;72.20
56308;DHT22;42217;50.422;7.210;2023-07-22T10:18:54;22.70;71.20
56308;DHT22;42217;50.422;7.210;2023-07-22T10:21:21;22.50;72.10
56308;DHT22;42217;50.422;7.210;2023-07-22T10:23:47;22.20;72.90
56308;DHT22;42217;50.422;7.210;2023-07-22T10:26:19;22.20;72.70
56308;DHT22;42217;50.422;7.210;2023-07-22T10:28:45;22.40;72.00
56308;DHT22;42217;50.422;7.210;2023-07-22T10:31:15;22.50;70.30
56308;DHT22;42217;50.422;7.210;2023-07-22T10:33:47;22.70;68.90
56308;DHT22;42217;50.422;7.210;2023-07-22T10:36:14;22.60;69.70
56308;DHT22;42217;50.422;7.210;2023-07-22T10:38:41;22.70;68.80
56308;DHT22;42217;50.422;7.210;2023-07-22T10:41:15;22.60;68.30
56308;DHT22;42217;50.422;7.210;2023-07-22T10:43:57;22.60;68.10
56308;DHT22;42217;50.422;7.210;2023-07-22T10:46:35;22.80;69.20
56308;DHT22;42217;50.422;7.210;2023-07-22T10:49:13;23.40;68.50
56308;DHT22;42217;50.422;7.210;2023-07-22T10:51:39;23.50;67.80
56308;DHT22;42217;50.422;7.210;2023-07-22T10:54:15;23.10;66.90
56308;DHT22;42217;50.422;7.210;2023-07-22T10:56:57;23.00;67.50
56308;DHT22;42217;50.422;7.210;2023-07-22T10:59:28;22.80;67.10
56308;DHT22;42217;50.422;7.210;2023-07-22T11:01:57;22.40;67.70
56308;DHT22;42217;50.422;7.210;2023-07-22T11:04:24;22.40;69.30
56308;DHT22;42217;50.422;7.210;2023-07-22T11:06:57;22.70;68.50
56308;DHT22;42217;50.422;7.210;2023-07-22T11:14:28;23.80;67.20
56308;DHT22;42217;50.422;7.210;2023-07-22T11:16:57;23.60;66.90
56308;DHT22;42217;50.422;7.210;2023-07-22T11:19:25;23.60;66.00
56308;DHT22;42217;50.422;7.210;2023-07-22T11:21:52;23.60;67.40
56308;DHT22;42217;50.422;7.210;2023-07-22T11:24:18;23.60;65.80
56308;DHT22;42217;50.422;7.210;2023-07-22T11:26:45;23.60;66.80
56308;DHT22;42217;50.422;7.210;2023-07-22T11:29:12;23.70;66.50
56308;DHT22;42217;50.422;7.210;2023-07-22T11:31:48;23.80;66.50
56308;DHT22;42217;50.422;7.210;2023-07-22T11:34:16;23.60;66.80
56308;DHT22;42217;50.422;7.210;2023-07-22T11:36:42;23.40;67.60
56308;DHT22;42217;50.422;7.210;2023-07-22T11:39:16;23.20;68.10
56308;DHT22;42217;50.422;7.210;2023-07-22T11:41:43;23.20;70.60
56308;DHT22;42217;50.422;7.210;2023-07-22T11:44:11;23.10;69.70
56308;DHT22;42217;50.422;7.210;2023-07-22T11:49:31;23.60;69.40
56308;DHT22;42217;50.422;7.210;2023-07-22T11:52:06;23.60;67.50
56308;DHT22;42217;50.422;7.210;2023-07-22T11:54:38;23.40;67.90
56308;DHT22;42217;50.422;7.210;2023-07-22T11:57:18;23.70;68.80
56308;DHT22;42217;50.422;7.210;2023-07-22T11:59:50;23.90;68.40
56308;DHT22;42217;50.422;7.210;2023-07-22T12:02:20;24.00;68.20
56308;DHT22;42217;50.422;7.210;2023-07-22T12:07:25;23.80;68.70
56308;DHT22;42217;50.422;7.210;2023-07-22T12:09:52;24.40;70.30
56308;DHT22;42217;50.422;7.210;2023-07-22T12:12:18;25.10;68.20
56308;DHT22;42217;50.422;7.210;2023-07-22T12:14:44;25.30;69.30
56308;DHT22;42217;50.422;7.210;2023-07-22T12:17:10;25.10;69.10
56308;DHT22;42217;50.422;7.210;2023-07-22T12:19:35;25.20;69.10
56308;DHT22;42217;50.422;7.210;2023-07-22T12:22:01;25.30;69.50
56308;DHT22;42217;50.422;7.210;2023-07-22T12:24:28;25.60;70.40
56308;DHT22;42217;50.422;7.210;2023-07-22T12:26:54;25.80;70.40
56308;DHT22;42217;50.422;7.210;2023-07-22T12:29:20;25.50;69.30
56308;DHT22;42217;50.422;7.210;2023-07-22T12:31:45;25.20;68.40
56308;DHT22;42217;50.422;7.210;2023-07-22T12:34:11;25.00;69.70
56308;DHT22;42217;50.422;7.210;2023-07-22T12:36:37;24.70;69.60
56308;DHT22;42217;50.422;7.210;2023-07-22T12:39:02;24.60;69.60
56308;DHT22;42217;50.422;7.210;2023-07-22T12:41:28;24.90;70.20
56308;DHT22;42217;50.422;7.210;2023-07-22T12:43:54;25.80;70.20
56308;DHT22;42217;50.422;7.210;2023-07-22T12:46:20;26.30;68.50
56308;DHT22;42217;50.422;7.210;2023-07-22T12:48:45;25.90;67.40
56308;DHT22;42217;50.422;7.210;2023-07-22T12:51:11;25.00;67.80
56308;DHT22;42217;50.422;7.210;2023-07-22T12:53:38;24.60;69.00
56308;DHT22;42217;50.422;7.210;2023-07-22T12:56:04;24.60;68.50
56308;DHT22;42217;50.422;7.210;2023-07-22T12:58:31;24.90;69.60
56308;DHT22;42217;50.422;7.210;2023-07-22T13:00:58;25.30;68.60
56308;DHT22;42217;50.422;7.210;2023-07-22T13:03:23;25.40;68.30
56308;DHT22;42217;50.422;7.210;2023-07-22T13:05:49;25.60;67.10
56308;DHT22;42217;50.422;7.210;2023-07-22T13:08:15;25.50;67.60
56308;DHT22;42217;50.422;7.210;2023-07-22T13:10:40;24.50;68.10
56308;DHT22;42217;50.422;7.210;2023-07-22T13:13:10;24.50;69.20
56308;DHT22;42217;50.422;7.210;2023-07-22T13:15:36;25.90;69.30
56308;DHT22;42217;50.422;7.210;2023-07-22T13:18:01;26.70;67.20
56308;DHT22;42217;50.422;7.210;2023-07-22T13:20:28;26.10;67.00
56308;DHT22;42217;50.422;7.210;2023-07-22T13:22:55;26.00;67.10
56308;DHT22;42217;50.422;7.210;2023-07-22T13:25:21;27.40;67.30
56308;DHT22;42217;50.422;7.210;2023-07-22T13:27:47;28.50;64.80
56308;DHT22;42217;50.422;7.210;2023-07-22T13:30:12;27.60;64.70
56308;DHT22;42217;50.422;7.210;2023-07-22T13:32:39;27.80;65.00
56308;DHT22;42217;50.422;7.210;2023-07-22T13:35:05;29.10;63.50
56308;DHT22;42217;50.422;7.210;2023-07-22T13:37:31;29.10;62.00
56308;DHT22;42217;50.422;7.210;2023-07-22T13:39:56;28.90;61.70
56308;DHT22;42217;50.422;7.210;2023-07-22T13:42:23;29.30;61.70
56308;DHT22;42217;50.422;7.210;2023-07-22T13:44:49;28.70;62.00
56308;DHT22;42217;50.422;7.210;2023-07-22T13:47:15;27.40;63.60
56308;DHT22;42217;50.422;7.210;2023-07-22T13:49:41;27.50;63.70
56308;DHT22;42217;50.422;7.210;2023-07-22T13:52:06;29.00;62.30
56308;DHT22;42217;50.422;7.210;2023-07-22T13:54:32;29.70;60.80
56308;DHT22;42217;50.422;7.210;2023-07-22T13:56:58;29.50;60.00
56308;DHT22;42217;50.422;7.210;2023-07-22T13:59:23;29.30;60.00
56308;DHT22;42217;50.422;7.210;2023-07-22T14:01:49;28.40;60.60
56308;DHT22;42217;50.422;7.210;2023-07-22T14:04:15;27.30;61.70
56308;DHT22;42217;50.422;7.210;2023-07-22T14:06:40;27.60;61.10
56308;DHT22;42217;50.422;7.210;2023-07-22T14:09:06;29.00;61.30
56308;DHT22;42217;50.422;7.210;2023-07-22T14:11:32;30.30;59.00
56308;DHT22;42217;50.422;7.210;2023-07-22T14:13:58;30.60;58.20
56308;DHT22;42217;50.422;7.210;2023-07-22T14:16:24;29.90;57.30
56308;DHT22;42217;50.422;7.210;2023-07-22T14:18:49;29.60;57.90
56308;DHT22;42217;50.422;7.210;2023-07-22T14:21:17;29.40;58.50
56308;DHT22;42217;50.422;7.210;2023-07-22T14:23:42;29.40;58.30
56308;DHT22;42217;50.422;7.210;2023-07-22T14:26:09;28.70;57.80
56308;DHT22;42217;50.422;7.210;2023-07-22T14:28:35;28.40;58.30
56308;DHT22;42217;50.422;7.210;2023-07-22T14:31:00;29.10;58.70
56308;DHT22;42217;50.422;7.210;2023-07-22T14:33:26;29.00;58.00
56308;DHT22;42217;50.422;7.210;2023-07-22T14:35:51;28.10;57.90
56308;DHT22;42217;50.422;7.210;2023-07-22T14:38:17;26.60;59.90
56308;DHT22;42217;50.422;7.210;2023-07-22T14:40:43;26.30;60.80
56308;DHT22;42217;50.422;7.210;2023-07-22T14:43:09;27.10;59.90
56308;DHT22;42217;50.422;7.210;2023-07-22T14:45:34;26.90;60.20
56308;DHT22;42217;50.422;7.210;2023-07-22T14:48:00;27.40;60.80
56308;DHT22;42217;50.422;7.210;2023-07-22T14:50:26;28.80;58.00
56308;DHT22;42217;50.422;7.210;2023-07-22T14:52:51;28.40;57.20
56308;DHT22;42217;50.422;7.210;2023-07-22T14:55:17;28.80;57.30
56308;DHT22;42217;50.422;7.210;2023-07-22T14:57:44;29.60;56.40
56308;DHT22;42217;50.422;7.210;2023-07-22T15:00:11;29.70;56.40
56308;DHT22;42217;50.422;7.210;2023-07-22T15:02:37;30.30;56.20
56308;DHT22;42217;50.422;7.210;2023-07-22T15:05:03;31.00;56.90
56308;DHT22;42217;50.422;7.210;2023-07-22T15:07:29;31.40;55.40
56308;DHT22;42217;50.422;7.210;2023-07-22T15:09:57;31.40;55.70
56308;DHT22;42217;50.422;7.210;2023-07-22T15:12:23;31.80;54.70
56308;DHT22;42217;50.422;7.210;2023-07-22T15:14:49;31.70;54.80
56308;DHT22;42217;50.422;7.210;2023-07-22T15:17:15;31.40;53.70
56308;DHT22;42217;50.422;7.210;2023-07-22T15:19:40;30.20;54.30
56308;DHT22;42217;50.422;7.210;2023-07-22T15:22:06;28.00;56.10
56308;DHT22;42217;50.422;7.210;2023-07-22T15:24:32;28.60;56.70
56308;DHT22;42217;50.422;7.210;2023-07-22T15:26:57;29.50;56.00
56308;DHT22;42217;50.422;7.210;2023-07-22T15:29:23;30.00;55.30
56308;DHT22;42217;50.422;7.210;2023-07-22T15:31:49;28.60;55.90
56308;DHT22;42217;50.422;7.210;2023-07-22T15:34:14;28.40;57.30
56308;DHT22;42217;50.422;7.210;2023-07-22T15:36:40;29.40;56.00
56308;DHT22;42217;50.422;7.210;2023-07-22T15:39:06;29.70;55.90
56308;DHT22;42217;50.422;7.210;2023-07-22T15:41:33;30.30;54.90